sensor_id;sensor_type;location;lat;lon;timestamp;temperature;humidity
26503;DHT22;14177;51.520;6.764;2023-07-13T00:02:04;17.90;99.90
26503;DHT22;14177;51.520;6.764;2023-07-13T00:04:32;17.90;99.90
26503;DHT22;14177;51.520;6.764;2023-07-13T00:06:59;17.90;99.90
26503;DHT22;14177;51.520;6.764;2023-07-13T00:09:27;18.00;99.90
26503;DHT22;14177;51.520;6.764;2023-07-13T00:11:56;17.90;99.90
26503;DHT22;14177;51.520;6.764;2023-07-13T00:14:26;18.00;99.90
26503;DHT22;14177;51.520;6.764;2023-07-13T00:16:55;18.00;99.90
26503;DHT22;14177;51.520;6.764;2023-07-13T00:19:22;17.90;99.90
26503;DHT22;14177;51.520;6.764;2023-07-13T00:21:49;17.90;99.90
26503;DHT22;14177;51.520;6.764;2023-07-13T00:24:17;17.90;99.90
26503;DHT22;14177;51.520;6.764;2023-07-13T00:26:50;17.90;99.90
26503;DHT22;14177;51.520;6.764;2023-07-13T00:29:17;18.00;99.90
26503;DHT22;14177;51.520;6.764;2023-07-13T00:31:44;17.90;99.90
26503;DHT22;14177;51.520;6.764;2023-07-13T00:34:11;18.00;99.90
26503;DHT22;14177;51.520;6.764;2023-07-13T00:36:38;17.90;99.90
26503;DHT22;14177;51.520;6.764;2023-07-13T00:39:06;17.90;99.90
26503;DHT22;14177;51.520;6.764;2023-07-13T00:41:33;17.80;99.90
26503;DHT22;14177;51.520;6.764;2023-07-13T00:44:00;17.80;99.90
26503;DHT22;14177;51.520;6.764;2023-07-13T00:46:30;17.70;99.90
26503;DHT22;14177;51.520;6.764;2023-07-13T00:49:05;17.70;99.90
26503;DHT22;14177;51.520;6.764;2023-07-13T00:51:43;17.60;99.90
26503;DHT22;14177;51.520;6.764;2023-07-13T00:54:28;17.60;99.90
26503;DHT22;14177;51.520;6.764;2023-07-13T00:57:01;17.60;99.90
26503;DHT22;14177;51.520;6.764;2023-07-13T00:59:31;17.50;99.90
26503;DHT22;14177;51.520;6.764;2023-07-13T01:02:02;17.50;99.90
26503;DHT22;14177;51.520;6.764;2023-07-13T01:04:30;17.50;99.90
26503;DHT22;14177;51.520;6.764;2023-07-13T01:06:57;17.50;99.90
26503;DHT22;14177;51.520;6.764;2023-07-13T01:09:26;17.40;99.90
26503;DHT22;14177;51.520;6.764;2023-07-13T01:11:54;17.40;99.90
26503;DHT22;14177;51.520;6.764;2023-07-13T01:14:21;17.40;99.90
26503;DHT22;14177;51.520;6.764;2023-07-13T01:16:48;17.40;99.90
26503;DHT22;14177;51.520;6.764;2023-07-13T01:22:09;17.40;99.90
26503;DHT22;14177;51.520;6.764;2023-07-13T01:24:44;17.40;99.90
26503;DHT22;14177;51.520;6.764;2023-07-13T01:27:17;17.40;99.90
26503;DHT22;14177;51.520;6.764;2023-07-13T01:29:47;17.50;99.90
26503;DHT22;14177;51.520;6.764;2023-07-13T01:32:17;17.50;99.90
26503;DHT22;14177;51.520;6.764;2023-07-13T01:34:54;17.50;99.90
26503;DHT22;14177;51.520;6.764;2023-07-13T01:37:23;17.50;99.90
26503;DHT22;14177;51.520;6.764;2023-07-13T01:39:51;17.50;99.90
26503;DHT22;14177;51.520;6.764;2023-07-13T01:42:19;17.40;99.90
26503;DHT22;14177;51.520;6.764;2023-07-13T01:44:47;17.40;99.90
26503;DHT22;14177;51.520;6.764;2023-07-13T01:47:14;17.30;99.90
26503;DHT22;14177;51.520;6.764;2023-07-13T01:49:41;17.20;99.90
26503;DHT22;14177;51.520;6.764;2023-07-13T01:52:08;17.20;99.90
26503;DHT22;14177;51.520;6.764;2023-07-13T01:54:35;17.20;99.90
26503;DHT22;14177;51.520;6.764;2023-07-13T01:57:02;17.10;99.90
26503;DHT22;14177;51.520;6.764;2023-07-13T01:59:30;17.10;99.90
26503;DHT22;14177;51.520;6.764;2023-07-13T02:01:57;17.10;99.90
26503;DHT22;14177;51.520;6.764;2023-07-13T02:04:24;17.10;99.90
26503;DHT22;14177;51.520;6.764;2023-07-13T02:06:51;17.10;99.90
26503;DHT22;14177;51.520;6.764;2023-07-13T02:09:18;17.20;99.90
26503;DHT22;14177;51.520;6.764;2023-07-13T02:11:45;17.10;99.90
26503;DHT22;14177;51.520;6.764;2023-07-13T02:14:12;17.10;99.90
26503;DHT22;14177;51.520;6.764;2023-07-13T02:16:39;17.10;99.90
26503;DHT22;14177;51.520;6.764;2023-07-13T02:19:06;17.10;99.90
26503;DHT22;14177;51.520;6.764;2023-07-13T02:21:34;17.10;99.90
26503;DHT22;14177;51.520;6.764;2023-07-13T02:24:01;17.00;99.90
26503;DHT22;14177;51.520;6.764;2023-07-13T02:26:28;16.90;99.90
26503;DHT22;14177;51.520;6.764;2023-07-13T02:28:55;16.90;99.90
26503;DHT22;14177;51.520;6.764;2023-07-13T02:31:22;16.80;99.90
26503;DHT22;14177;51.520;6.764;2023-07-13T02:33:49;16.70;99.90
26503;DHT22;14177;51.520;6.764;2023-07-13T02:36:17;16.70;99.90
26503;DHT22;14177;51.520;6.764;2023-07-13T02:38:45;16.70;99.90
26503;DHT22;14177;51.520;6.764;2023-07-13T02:41:12;16.70;99.90
26503;DHT22;14177;51.520;6.764;2023-07-13T02:43:40;16.70;99.90
26503;DHT22;14177;51.520;6.764;2023-07-13T02:46:08;16.70;99.90
26503;DHT22;14177;51.520;6.764;2023-07-13T02:48:37;16.70;99.90
26503;DHT22;14177;51.520;6.764;2023-07-13T02:51:05;16.70;99.90
26503;DHT22;14177;51.520;6.764;2023-07-13T02:53:34;16.70;99.90
26503;DHT22;14177;51.520;6.764;2023-07-13T02:56:03;16.60;99.90
26503;DHT22;14177;51.520;6.764;2023-07-13T02:58:31;16.60;99.90
26503;DHT22;14177;51.520;6.764;2023-07-13T03:00:58;16.60;99.90
26503;DHT22;14177;51.520;6.764;2023-07-13T03:03:26;16.60;99.90
26503;DHT22;14177;51.520;6.764;2023-07-13T03:05:59;16.50;99.90
26503;DHT22;14177;51.520;6.764;2023-07-13T03:08:33;16.50;99.90
26503;DHT22;14177;51.520;6.764;2023-07-13T03:11:18;16.50;99.90
26503;DHT22;14177;51.520;6.764;2023-07-13T03:13:54;16.50;99.90
26503;DHT22;14177;51.520;6.764;2023-07-13T03:16:23;16.50;99.90
26503;DHT22;14177;51.520;6.764;2023-07-13T03:18:51;16.50;99.90
26503;DHT22;14177;51.520;6.764;2023-07-13T03:21:18;16.50;99.90
26503;DHT22;14177;51.520;6.764;2023-07-13T03:23:46;16.50;99.90
26503;DHT22;14177;51.520;6.764;2023-07-13T03:26:17;16.50;99.90
26503;DHT22;14177;51.520;6.764;2023-07-13T03:28:47;16.50;99.90
26503;DHT22;14177;51.520;6.764;2023-07-13T03:31:22;16.50;99.90
26503;DHT22;14177;51.520;6.764;2023-07-13T03:33:56;16.50;99.90
26503;DHT22;14177;51.520;6.764;2023-07-13T03:36:26;16.50;99.90
26503;DHT22;14177;51.520;6.764;2023-07-13T03:38:59;16.60;99.90
26503;DHT22;14177;51.520;6.764;2023-07-13T03:41:35;16.70;99.90
26503;DHT22;14177;51.520;6.764;2023-07-13T03:44:03;16.70;99.90
26503;DHT22;14177;51.520;6.764;2023-07-13T03:46:30;16.60;99.90
26503;DHT22;14177;51.520;6.764;2023-07-13T03:48:57;16.70;99.90
26503;DHT22;14177;51.520;6.764;2023-07-13T03:51:25;16.70;99.90
26503;DHT22;14177;51.520;6.764;2023-07-13T03:53:51;16.70;99.90
26503;DHT22;14177;51.520;6.764;2023-07-13T03:56:19;16.70;99.90
26503;DHT22;14177;51.520;6.764;2023-07-13T03:58:48;16.70;99.90
26503;DHT22;14177;51.520;6.764;2023-07-13T04:01:20;16.70;99.90
26503;DHT22;14177;51.520;6.764;2023-07-13T04:03:49;16.70;99.90
26503;DHT22;14177;51.520;6.764;2023-07-13T04:06:21;16.60;99.90
26503;DHT22;14177;51.520;6.764;2023-07-13T04:08:56;16.60;99.90
26503;DHT22;14177;51.520;6.764;2023-07-13T04:11:27;16.60;99.90
26503;DHT22;14177;51.520;6.764;2023-07-13T04:13:56;16.50;99.90
26503;DHT22;14177;51.520;6.764;2023-07-13T04:16:23;16.50;99.90
26503;DHT22;14177;51.520;6.764;2023-07-13T04:18:51;16.50;99.90
26503;DHT22;14177;51.520;6.764;2023-07-13T04:21:23;16.50;99.90
26503;DHT22;14177;51.520;6.764;2023-07-13T04:23:51;16.50;99.90
26503;DHT22;14177;51.520;6.764;2023-07-13T04:26:18;16.60;99.90
26503;DHT22;14177;51.520;6.764;2023-07-13T04:29:03;16.60;99.90
26503;DHT22;14177;51.520;6.764;2023-07-13T04:31:39;16.50;99.90
26503;DHT22;14177;51.520;6.764;2023-07-13T04:34:07;16.50;99.90
26503;DHT22;14177;51.520;6.764;2023-07-13T04:36:34;16.50;99.90
26503;DHT22;14177;51.520;6.764;2023-07-13T04:39:04;16.60;99.90
26503;DHT22;14177;51.520;6.764;2023-07-13T04:41:31;16.50;99.90
26503;DHT22;14177;51.520;6.764;2023-07-13T04:43:58;16.50;99.90
26503;DHT22;14177;51.520;6.764;2023-07-13T04:46:25;16.50;99.90
26503;DHT22;14177;51.520;6.764;2023-07-13T04:48:52;16.50;99.90
26503;DHT22;14177;51.520;6.764;2023-07-13T04:51:20;16.60;99.90
26503;DHT22;14177;51.520;6.764;2023-07-13T04:53:47;16.60;99.90
26503;DHT22;14177;51.520;6.764;2023-07-13T04:56:15;16.50;99.90
26503;DHT22;14177;51.520;6.764;2023-07-13T04:58:42;16.50;99.90
26503;DHT22;14177;51.520;6.764;2023-07-13T05:01:09;16.50;99.90
26503;DHT22;14177;51.520;6.764;2023-07-13T05:03:37;16.50;99.90
26503;DHT22;14177;51.520;6.764;2023-07-13T05:06:06;16.60;99.90
26503;DHT22;14177;51.520;6.764;2023-07-13T05:08:37;16.60;99.90
26503;DHT22;14177;51.520;6.764;2023-07-13T05:11:05;16.50;99.90
26503;DHT22;14177;51.520;6.764;2023-07-13T05:13:34;16.60;99.90
26503;DHT22;14177;51.520;6.764;2023-07-13T05:16:04;16.50;99.90
26503;DHT22;14177;51.520;6.764;2023-07-13T05:18:36;16.60;99.90
26503;DHT22;14177;51.520;6.764;2023-07-13T05:21:09;16.60;99.90
26503;DHT22;14177;51.520;6.764;2023-07-13T05:23:38;16.60;99.90
26503;DHT22;14177;51.520;6.764;2023-07-13T05:26:06;16.70;99.90
26503;DHT22;14177;51.520;6.764;2023-07-13T05:28:36;16.60;99.90
26503;DHT22;14177;51.520;6.764;2023-07-13T05:31:04;16.60;99.90
26503;DHT22;14177;51.520;6.764;2023-07-13T05:33:33;16.60;99.90
26503;DHT22;14177;51.520;6.764;2023-07-13T05:36:00;16.50;99.90
26503;DHT22;14177;51.520;6.764;2023-07-13T05:38:28;16.60;99.90
26503;DHT22;14177;51.520;6.764;2023-07-13T05:40:55;16.70;99.90
26503;DHT22;14177;51.520;6.764;2023-07-13T05:43:24;16.70;99.90
26503;DHT22;14177;51.520;6.764;2023-07-13T05:45:56;16.70;99.90
26503;DHT22;14177;51.520;6.764;2023-07-13T05:48:24;16.80;99.90
26503;DHT22;14177;51.520;6.764;2023-07-13T05:50:51;16.90;99.90
26503;DHT22;14177;51.520;6.764;2023-07-13T05:53:18;16.90;99.90
26503;DHT22;14177;51.520;6.764;2023-07-13T05:55:46;16.90;99.90
26503;DHT22;14177;51.520;6.764;2023-07-13T05:58:14;16.90;99.90
26503;DHT22;14177;51.520;6.764;2023-07-13T06:00:42;16.90;99.90
26503;DHT22;14177;51.520;6.764;2023-07-13T06:03:10;17.00;99.90
26503;DHT22;14177;51.520;6.764;2023-07-13T06:05:38;17.10;99.90
26503;DHT22;14177;51.520;6.764;2023-07-13T06:08:08;17.20;99.90
26503;DHT22;14177;51.520;6.764;2023-07-13T06:10:35;17.30;99.90
26503;DHT22;14177;51.520;6.764;2023-07-13T06:13:03;17.30;99.90
26503;DHT22;14177;51.520;6.764;2023-07-13T06:15:29;17.40;99.90
26503;DHT22;14177;51.520;6.764;2023-07-13T06:17:56;17.50;99.90
26503;DHT22;14177;51.520;6.764;2023-07-13T06:20:23;17.70;99.90
26503;DHT22;14177;51.520;6.764;2023-07-13T06:22:50;17.70;99.90
26503;DHT22;14177;51.520;6.764;2023-07-13T06:25:17;17.70;99.90
26503;DHT22;14177;51.520;6.764;2023-07-13T06:27:44;17.70;99.90
26503;DHT22;14177;51.520;6.764;2023-07-13T06:30:11;17.70;99.90
26503;DHT22;14177;51.520;6.764;2023-07-13T06:32:39;17.80;99.90
26503;DHT22;14177;51.520;6.764;2023-07-13T06:35:07;17.80;99.90
26503;DHT22;14177;51.520;6.764;2023-07-13T06:37:34;17.90;99.90
26503;DHT22;14177;51.520;6.764;2023-07-13T06:40:01;17.90;99.90
26503;DHT22;14177;51.520;6.764;2023-07-13T06:42:28;18.00;99.90
26503;DHT22;14177;51.520;6.764;2023-07-13T06:44:55;18.00;99.90
26503;DHT22;14177;51.520;6.764;2023-07-13T06:47:22;18.10;99.90
26503;DHT22;14177;51.520;6.764;2023-07-13T06:49:49;18.00;99.90
26503;DHT22;14177;51.520;6.764;2023-07-13T06:52:16;18.10;99.90
26503;DHT22;14177;51.520;6.764;2023-07-13T06:54:43;18.10;99.90
26503;DHT22;14177;51.520;6.764;2023-07-13T06:57:10;18.10;99.90
26503;DHT22;14177;51.520;6.764;2023-07-13T06:59:37;18.00;99.90
26503;DHT22;14177;51.520;6.764;2023-07-13T07:02:04;18.20;99.90
26503;DHT22;14177;51.520;6.764;2023-07-13T07:04:32;18.20;99.90
26503;DHT22;14177;51.520;6.764;2023-07-13T07:06:59;18.10;99.90
26503;DHT22;14177;51.520;6.764;2023-07-13T07:09:26;18.20;99.90
26503;DHT22;14177;51.520;6.764;2023-07-13T07:11:53;18.30;99.90
26503;DHT22;14177;51.520;6.764;2023-07-13T07:14:30;18.30;99.90
26503;DHT22;14177;51.520;6.764;2023-07-13T07:16:58;18.30;99.90
26503;DHT22;14177;51.520;6.764;2023-07-13T07:19:28;18.40;99.90
26503;DHT22;14177;51.520;6.764;2023-07-13T07:21:56;18.40;99.90
26503;DHT22;14177;51.520;6.764;2023-07-13T07:24:23;18.40;99.90
26503;DHT22;14177;51.520;6.764;2023-07-13T07:26:50;18.60;99.90
26503;DHT22;14177;51.520;6.764;2023-07-13T07:29:20;18.50;99.90
26503;DHT22;14177;51.520;6.764;2023-07-13T07:31:50;18.40;99.90
26503;DHT22;14177;51.520;6.764;2023-07-13T07:34:31;18.50;99.90
26503;DHT22;14177;51.520;6.764;2023-07-13T07:37:02;18.70;99.90
26503;DHT22;14177;51.520;6.764;2023-07-13T07:39:32;18.80;99.90
26503;DHT22;14177;51.520;6.764;2023-07-13T07:41:59;19.00;99.90
26503;DHT22;14177;51.520;6.764;2023-07-13T07:44:27;18.80;99.90
26503;DHT22;14177;51.520;6.764;2023-07-13T07:46:55;18.90;99.90
26503;DHT22;14177;51.520;6.764;2023-07-13T07:49:22;18.80;99.90
26503;DHT22;14177;51.520;6.764;2023-07-13T07:51:49;18.90;99.90
26503;DHT22;14177;51.520;6.764;2023-07-13T07:54:16;18.80;99.90
26503;DHT22;14177;51.520;6.764;2023-07-13T07:57:03;18.90;99.90
26503;DHT22;14177;51.520;6.764;2023-07-13T07:59:33;18.90;99.90
26503;DHT22;14177;51.520;6.764;2023-07-13T08:02:03;19.00;99.90
26503;DHT22;14177;51.520;6.764;2023-07-13T08:04:33;19.20;99.90
26503;DHT22;14177;51.520;6.764;2023-07-13T08:07:03;19.10;99.90
26503;DHT22;14177;51.520;6.764;2023-07-13T08:09:30;19.00;99.90
26503;DHT22;14177;51.520;6.764;2023-07-13T08:11:57;19.30;99.90
26503;DHT22;14177;51.520;6.764;2023-07-13T08:14:27;19.30;99.90
26503;DHT22;14177;51.520;6.764;2023-07-13T08:17:13;19.70;99.90
26503;DHT22;14177;51.520;6.764;2023-07-13T08:19:39;19.90;99.90
26503;DHT22;14177;51.520;6.764;2023-07-13T08:22:06;19.90;99.90
26503;DHT22;14177;51.520;6.764;2023-07-13T08:24:33;19.90;99.90
26503;DHT22;14177;51.520;6.764;2023-07-13T08:27:00;20.10;99.90
26503;DHT22;14177;51.520;6.764;2023-07-13T08:29:27;20.00;99.90
26503;DHT22;14177;51.520;6.764;2023-07-13T08:31:54;19.90;99.90
26503;DHT22;14177;51.520;6.764;2023-07-13T08:34:21;20.00;99.90
26503;DHT22;14177;51.520;6.764;2023-07-13T08:36:47;20.20;99.90
26503;DHT22;14177;51.520;6.764;2023-07-13T08:39:14;20.30;99.90
26503;DHT22;14177;51.520;6.764;2023-07-13T08:41:43;20.20;99.90
26503;DHT22;14177;51.520;6.764;2023-07-13T08:44:27;20.20;99.90
26503;DHT22;14177;51.520;6.764;2023-07-13T08:47:05;20.50;99.90
26503;DHT22;14177;51.520;6.764;2023-07-13T08:49:35;20.60;99.90
26503;DHT22;14177;51.520;6.764;2023-07-13T08:52:24;20.70;99.90
26503;DHT22;14177;51.520;6.764;2023-07-13T08:54:58;20.90;99.90
26503;DHT22;14177;51.520;6.764;2023-07-13T08:57:34;20.90;99.90
26503;DHT22;14177;51.520;6.764;2023-07-13T09:00:01;20.80;99.90
26503;DHT22;14177;51.520;6.764;2023-07-13T09:02:38;20.90;99.90
26503;DHT22;14177;51.520;6.764;2023-07-13T09:05:15;20.90;99.90
26503;DHT22;14177;51.520;6.764;2023-07-13T09:08:25;21.10;99.90
26503;DHT22;14177;51.520;6.764;2023-07-13T09:11:27;21.00;99.90
26503;DHT22;14177;51.520;6.764;2023-07-13T09:14:33;20.90;99.90
26503;DHT22;14177;51.520;6.764;2023-07-13T09:17:22;20.80;99.90
26503;DHT22;14177;51.520;6.764;2023-07-13T09:20:21;20.80;99.90
26503;DHT22;14177;51.520;6.764;2023-07-13T09:22:53;21.00;99.90
26503;DHT22;14177;51.520;6.764;2023-07-13T09:25:36;21.10;99.90
26503;DHT22;14177;51.520;6.764;2023-07-13T09:33:32;21.50;99.90
26503;DHT22;14177;51.520;6.764;2023-07-13T09:36:05;21.50;99.90
26503;DHT22;14177;51.520;6.764;2023-07-13T09:39:15;21.50;99.90
26503;DHT22;14177;51.520;6.764;2023-07-13T09:42:05;21.30;99.90
26503;DHT22;14177;51.520;6.764;2023-07-13T09:44:35;21.30;99.90
26503;DHT22;14177;51.520;6.764;2023-07-13T09:47:29;20.80;99.90
26503;DHT22;14177;51.520;6.764;2023-07-13T09:50:03;20.60;99.90
26503;DHT22;14177;51.520;6.764;2023-07-13T09:52:44;20.80;99.90
26503;DHT22;14177;51.520;6.764;2023-07-13T09:55:34;21.10;99.90
26503;DHT22;14177;51.520;6.764;2023-07-13T09:58:16;21.70;99.90
26503;DHT22;14177;51.520;6.764;2023-07-13T10:01:03;21.90;99.90
26503;DHT22;14177;51.520;6.764;2023-07-13T10:03:36;22.20;99.90
26503;DHT22;14177;51.520;6.764;2023-07-13T10:06:16;22.10;99.90
26503;DHT22;14177;51.520;6.764;2023-07-13T10:08:46;22.20;99.90
26503;DHT22;14177;51.520;6.764;2023-07-13T10:11:22;22.50;99.90
26503;DHT22;14177;51.520;6.764;2023-07-13T10:13:54;22.90;99.90
26503;DHT22;14177;51.520;6.764;2023-07-13T10:16:32;22.70;99.90
26503;DHT22;14177;51.520;6.764;2023-07-13T10:19:05;22.60;99.90
26503;DHT22;14177;51.520;6.764;2023-07-13T10:22:02;22.60;99.90
26503;DHT22;14177;51.520;6.764;2023-07-13T10:24:37;23.30;99.90
26503;DHT22;14177;51.520;6.764;2023-07-13T10:27:10;23.30;99.90
26503;DHT22;14177;51.520;6.764;2023-07-13T10:29:46;23.20;99.90
26503;DHT22;14177;51.520;6.764;2023-07-13T10:32:25;23.40;99.90
26503;DHT22;14177;51.520;6.764;2023-07-13T10:34:52;23.40;99.90
26503;DHT22;14177;51.520;6.764;2023-07-13T10:37:28;23.20;99.90
26503;DHT22;14177;51.520;6.764;2023-07-13T10:39:59;23.40;99.90
26503;DHT22;14177;51.520;6.764;2023-07-13T10:42:32;23.60;99.20
26503;DHT22;14177;51.520;6.764;2023-07-13T10:45:16;23.80;98.00
26503;DHT22;14177;51.520;6.764;2023-07-13T10:47:46;23.60;98.20
26503;DHT22;14177;51.520;6.764;2023-07-13T10:50:22;23.40;98.80
26503;DHT22;14177;51.520;6.764;2023-07-13T10:52:55;23.80;98.40
26503;DHT22;14177;51.520;6.764;2023-07-13T10:55:33;23.80;97.90
26503;DHT22;14177;51.520;6.764;2023-07-13T10:58:18;23.70;97.50
26503;DHT22;14177;51.520;6.764;2023-07-13T11:01:17;23.90;97.80
26503;DHT22;14177;51.520;6.764;2023-07-13T11:03:59;23.50;97.30
26503;DHT22;14177;51.520;6.764;2023-07-13T11:06:41;23.50;98.30
26503;DHT22;14177;51.520;6.764;2023-07-13T11:22:48;24.40;95.90
26503;DHT22;14177;51.520;6.764;2023-07-13T11:25:34;24.60;95.50
26503;DHT22;14177;51.520;6.764;2023-07-13T11:28:17;24.80;94.10
26503;DHT22;14177;51.520;6.764;2023-07-13T11:36:13;25.60;92.10
26503;DHT22;14177;51.520;6.764;2023-07-13T11:38:44;25.30;92.20
26503;DHT22;14177;51.520;6.764;2023-07-13T11:41:22;25.70;91.70
26503;DHT22;14177;51.520;6.764;2023-07-13T11:44:05;25.50;90.80
26503;DHT22;14177;51.520;6.764;2023-07-13T11:46:51;25.00;91.00
26503;DHT22;14177;51.520;6.764;2023-07-13T11:49:24;24.60;91.00
26503;DHT22;14177;51.520;6.764;2023-07-13T11:51:53;24.90;91.80
26503;DHT22;14177;51.520;6.764;2023-07-13T11:56:59;25.40;90.40
26503;DHT22;14177;51.520;6.764;2023-07-13T11:59:31;25.60;90.10
26503;DHT22;14177;51.520;6.764;2023-07-13T12:02:00;25.80;89.40
26503;DHT22;14177;51.520;6.764;2023-07-13T12:04:31;25.70;88.20
26503;DHT22;14177;51.520;6.764;2023-07-13T12:07:14;25.80;88.00
26503;DHT22;14177;51.520;6.764;2023-07-13T12:09:43;25.50;87.60
26503;DHT22;14177;51.520;6.764;2023-07-13T12:12:17;25.20;85.40
26503;DHT22;14177;51.520;6.764;2023-07-13T12:14:45;25.20;84.90
26503;DHT22;14177;51.520;6.764;2023-07-13T12:17:23;25.40;86.90
26503;DHT22;14177;51.520;6.764;2023-07-13T12:19:52;25.70;86.50
26503;DHT22;14177;51.520;6.764;2023-07-13T12:22:20;25.60;87.70
26503;DHT22;14177;51.520;6.764;2023-07-13T12:24:51;26.10;84.40
26503;DHT22;14177;51.520;6.764;2023-07-13T12:27:27;26.30;85.30
26503;DHT22;14177;51.520;6.764;2023-07-13T12:30:01;25.90;84.40
26503;DHT22;14177;51.520;6.764;2023-07-13T12:32:32;25.40;83.30
26503;DHT22;14177;51.520;6.764;2023-07-13T12:35:17;24.90;83.70
26503;DHT22;14177;51.520;6.764;2023-07-13T12:37:48;25.00;86.30
26503;DHT22;14177;51.520;6.764;2023-07-13T12:40:19;24.70;86.50
26503;DHT22;14177;51.520;6.764;2023-07-13T12:42:51;24.50;88.80
26503;DHT22;14177;51.520;6.764;2023-07-13T12:45:24;24.20;87.80
26503;DHT22;14177;51.520;6.764;2023-07-13T12:48:03;24.00;88.80
26503;DHT22;14177;51.520;6.764;2023-07-13T12:50:40;23.70;89.60
26503;DHT22;14177;51.520;6.764;2023-07-13T12:53:23;23.70;90.70
26503;DHT22;14177;51.520;6.764;2023-07-13T12:55:57;22.90;93.50
26503;DHT22;14177;51.520;6.764;2023-07-13T12:58:41;22.80;97.10
26503;DHT22;14177;51.520;6.764;2023-07-13T13:01:10;22.80;99.90
26503;DHT22;14177;51.520;6.764;2023-07-13T13:03:45;22.70;99.80
26503;DHT22;14177;51.520;6.764;2023-07-13T13:08:48;22.60;99.10
26503;DHT22;14177;51.520;6.764;2023-07-13T13:11:18;22.60;99.70
26503;DHT22;14177;51.520;6.764;2023-07-13T13:13:46;22.50;99.60
26503;DHT22;14177;51.520;6.764;2023-07-13T13:16:16;22.50;99.40
26503;DHT22;14177;51.520;6.764;2023-07-13T13:18:47;22.50;99.90
26503;DHT22;14177;51.520;6.764;2023-07-13T13:21:15;22.50;99.20
26503;DHT22;14177;51.520;6.764;2023-07-13T13:23:43;22.70;99.90
26503;DHT22;14177;51.520;6.764;2023-07-13T13:26:15;22.80;99.90
26503;DHT22;14177;51.520;6.764;2023-07-13T13:28:43;22.90;99.90
26503;DHT22;14177;51.520;6.764;2023-07-13T13:31:12;23.10;99.90
26503;DHT22;14177;51.520;6.764;2023-07-13T13:33:40;23.50;99.90
26503;DHT22;14177;51.520;6.764;2023-07-13T13:36:15;23.60;99.60
26503;DHT22;14177;51.520;6.764;2023-07-13T13:38:43;23.40;99.50
26503;DHT22;14177;51.520;6.764;2023-07-13T13:41:12;23.50;99.60
26503;DHT22;14177;51.520;6.764;2023-07-13T13:43:41;23.50;99.20
26503;DHT22;14177;51.520;6.764;2023-07-13T13:46:20;23.40;99.30
26503;DHT22;14177;51.520;6.764;2023-07-13T13:48:49;23.30;99.90
26503;DHT22;14177;51.520;6.764;2023-07-13T13:51:21;23.10;99.90
26503;DHT22;14177;51.520;6.764;2023-07-13T13:53:50;23.00;99.90
26503;DHT22;14177;51.520;6.764;2023-07-13T13:56:19;22.80;99.90
26503;DHT22;14177;51.520;6.764;2023-07-13T13:58:46;22.70;99.90
26503;DHT22;14177;51.520;6.764;2023-07-13T14:01:20;22.70;99.90
26503;DHT22;14177;51.520;6.764;2023-07-13T14:03:50;22.70;99.90
26503;DHT22;14177;51.520;6.764;2023-07-13T14:06:22;22.70;99.90
26503;DHT22;14177;51.520;6.764;2023-07-13T14:08:49;22.80;99.90
26503;DHT22;14177;51.520;6.764;2023-07-13T14:11:18;22.90;99.90
26503;DHT22;14177;51.520;6.764;2023-07-13T14:13:54;22.90;99.90
26503;DHT22;14177;51.520;6.764;2023-07-13T14:16:27;23.20;99.90
26503;DHT22;14177;51.520;6.764;2023-07-13T14:18:59;23.20;99.90
26503;DHT22;14177;51.520;6.764;2023-07-13T14:21:28;23.30;99.90
26503;DHT22;14177;51.520;6.764;2023-07-13T14:23:56;23.10;99.90
26503;DHT22;14177;51.520;6.764;2023-07-13T14:26:25;23.00;99.90
26503;DHT22;14177;51.520;6.764;2023-07-13T14:28:55;23.00;99.90
26503;DHT22;14177;51.520;6.764;2023-07-13T14:31:27;23.10;99.90
26503;DHT22;14177;51.520;6.764;2023-07-13T14:33:58;23.30;99.90
26503;DHT22;14177;51.520;6.764;2023-07-13T14:36:29;23.50;99.90
26503;DHT22;14177;51.520;6.764;2023-07-13T14:39:01;23.70;99.20
26503;DHT22;14177;51.520;6.764;2023-07-13T14:41:36;23.90;99.10
26503;DHT22;14177;51.520;6.764;2023-07-13T14:44:12;24.30;96.50
26503;DHT22;14177;51.520;6.764;2023-07-13T14:46:45;24.50;96.70
26503;DHT22;14177;51.520;6.764;2023-07-13T14:49:30;24.70;96.00
26503;DHT22;14177;51.520;6.764;2023-07-13T14:52:03;24.60;95.40
26503;DHT22;14177;51.520;6.764;2023-07-13T14:54:37;24.30;95.10
26503;DHT22;14177;51.520;6.764;2023-07-13T14:57:15;24.10;95.50
26503;DHT22;14177;51.520;6.764;2023-07-13T14:59:46;24.00;96.00
26503;DHT22;14177;51.520;6.764;2023-07-13T15:02:28;23.90;96.30
26503;DHT22;14177;51.520;6.764;2023-07-13T15:04:58;23.70;96.20
26503;DHT22;14177;51.520;6.764;2023-07-13T15:10:16;23.30;97.30
26503;DHT22;14177;51.520;6.764;2023-07-13T15:12:46;23.30;96.90
26503;DHT22;14177;51.520;6.764;2023-07-13T15:15:14;23.00;97.50
26503;DHT22;14177;51.520;6.764;2023-07-13T15:17:43;23.00;97.80
26503;DHT22;14177;51.520;6.764;2023-07-13T15:20:29;22.60;99.70
26503;DHT22;14177;51.520;6.764;2023-07-13T15:23:01;21.90;99.90
26503;DHT22;14177;51.520;6.764;2023-07-13T15:25:30;21.30;99.90
26503;DHT22;14177;51.520;6.764;2023-07-13T15:28:00;20.80;99.90
26503;DHT22;14177;51.520;6.764;2023-07-13T15:30:36;20.60;99.90
26503;DHT22;14177;51.520;6.764;2023-07-13T15:33:30;20.50;99.90
26503;DHT22;14177;51.520;6.764;2023-07-13T15:35:57;20.30;99.90
26503;DHT22;14177;51.520;6.764;2023-07-13T15:38:29;20.20;99.90
26503;DHT22;14177;51.520;6.764;2023-07-13T15:40:56;20.10;99.90
26503;DHT22;14177;51.520;6.764;2023-07-13T15:43:23;20.10;99.90
26503;DHT22;14177;51.520;6.764;2023-07-13T15:45:52;20.00;99.90
26503;DHT22;14177;51.520;6.764;2023-07-13T15:48:23;19.90;99.90
26503;DHT22;14177;51.520;6.764;2023-07-13T15:50:54;19.80;99.90
26503;DHT22;14177;51.520;6.764;2023-07-13T15:53:32;19.70;99.90
26503;DHT22;14177;51.520;6.764;2023-07-13T15:56:02;19.80;99.90
26503;DHT22;14177;51.520;6.764;2023-07-13T15:58:42;19.70;99.90
26503;DHT22;14177;51.520;6.764;2023-07-13T16:01:12;19.80;99.90
26503;DHT22;14177;51.520;6.764;2023-07-13T16:03:40;19.80;99.90
26503;DHT22;14177;51.520;6.764;2023-07-13T16:06:14;19.90;99.90
26503;DHT22;14177;51.520;6.764;2023-07-13T16:08:44;19.90;99.90
26503;DHT22;14177;51.520;6.764;2023-07-13T16:11:25;19.90;99.90
26503;DHT22;14177;51.520;6.764;2023-07-13T16:13:54;20.00;99.90
26503;DHT22;14177;51.520;6.764;2023-07-13T16:16:29;20.10;99.90
26503;DHT22;14177;51.520;6.764;2023-07-13T16:18:59;20.10;99.90
26503;DHT22;14177;51.520;6.764;2023-07-13T16:21:30;20.10;99.90
26503;DHT22;14177;51.520;6.764;2023-07-13T16:24:01;20.00;99.90
26503;DHT22;14177;51.520;6.764;2023-07-13T16:26:36;20.10;99.90
26503;DHT22;14177;51.520;6.764;2023-07-13T16:29:12;20.20;99.90
26503;DHT22;14177;51.520;6.764;2023-07-13T16:34:23;20.20;99.90
26503;DHT22;14177;51.520;6.764;2023-07-13T16:36:53;20.10;99.90